createdAt,value
2019-06-20T00:00:35.410Z,25.93
2019-06-20T00:01:35.395Z,25.91
2019-06-20T00:02:35.387Z,25.93
2019-06-20T00:03:35.391Z,25.91
2019-06-20T00:04:35.369Z,25.96
2019-06-20T00:05:35.356Z,25.95
2019-06-20T00:06:35.338Z,25.99
2019-06-20T00:07:35.328Z,25.91
2019-06-20T00:08:35.320Z,25.93
2019-06-20T00:09:35.346Z,25.98
2019-06-20T00:10:35.295Z,25.91
2019-06-20T00:11:35.289Z,25.87
2019-06-20T00:12:35.274Z,25.88
2019-06-20T00:13:35.264Z,25.90
2019-06-20T00:14:35.262Z,25.90
2019-06-20T00:15:35.261Z,25.91
2019-06-20T00:16:35.240Z,25.96
2019-06-20T00:17:35.229Z,25.91
2019-06-20T00:18:35.206Z,25.91
2019-06-20T00:19:35.206Z,25.95
2019-06-20T00:20:35.183Z,25.88
2019-06-20T00:21:35.194Z,25.84
2019-06-20T00:22:35.167Z,25.85
2019-06-20T00:23:35.151Z,25.87
2019-06-20T00:24:35.153Z,25.83
2019-06-20T00:25:35.132Z,25.87
2019-06-20T00:26:35.123Z,25.83
2019-06-20T00:27:35.123Z,25.83
2019-06-20T00:28:35.096Z,25.81
2019-06-20T00:29:35.095Z,25.83
2019-06-20T00:30:35.075Z,25.87
2019-06-20T00:31:35.061Z,25.85
2019-06-20T00:32:35.051Z,25.83
2019-06-20T00:33:35.067Z,25.87
2019-06-20T00:34:35.120Z,25.87
2019-06-20T00:35:35.017Z,25.87
2019-06-20T00:36:35.005Z,25.88
2019-06-20T00:37:34.995Z,25.83
2019-06-20T00:38:34.983Z,25.81
2019-06-20T00:39:35.004Z,25.85
2019-06-20T00:40:34.975Z,25.81
2019-06-20T00:41:34.951Z,25.73
2019-06-20T00:42:34.946Z,25.78
2019-06-20T00:43:34.944Z,25.83
2019-06-20T00:44:34.922Z,25.81
2019-06-20T00:45:34.934Z,25.87
2019-06-20T00:46:34.897Z,25.85
2019-06-20T00:47:34.889Z,25.84
2019-06-20T00:48:34.885Z,25.80
2019-06-20T00:49:34.870Z,25.75
2019-06-20T00:50:34.869Z,25.81
2019-06-20T00:51:34.874Z,25.75
2019-06-20T00:52:34.828Z,25.85
2019-06-20T00:53:34.824Z,25.84
2019-06-20T00:54:34.841Z,25.77
2019-06-20T00:55:34.799Z,25.78
2019-06-20T00:56:34.784Z,25.78
2019-06-20T00:57:34.796Z,25.84
2019-06-20T00:58:34.772Z,25.75
2019-06-20T00:59:34.774Z,25.75
2019-06-20T01:00:34.754Z,25.77
2019-06-20T01:01:34.730Z,25.73
2019-06-20T01:02:34.720Z,25.73
2019-06-20T01:03:34.709Z,25.73
2019-06-20T01:04:34.710Z,25.75
2019-06-20T01:05:34.690Z,25.80
2019-06-20T01:06:34.673Z,25.80
2019-06-20T01:07:34.663Z,25.81
2019-06-20T01:08:34.652Z,25.78
2019-06-20T01:09:34.657Z,25.80
2019-06-20T01:10:34.650Z,25.75
2019-06-20T01:11:34.642Z,25.77
2019-06-20T01:12:34.608Z,25.75
2019-06-20T01:13:34.671Z,25.78
2019-06-20T01:14:34.584Z,25.70
2019-06-20T01:15:34.585Z,25.83
2019-06-20T01:16:34.562Z,25.84
2019-06-20T01:17:34.585Z,25.83
2019-06-20T01:18:34.540Z,25.68
2019-06-20T01:19:34.535Z,25.66
2019-06-20T01:20:34.540Z,25.75
2019-06-20T01:21:34.506Z,25.68
2019-06-20T01:22:34.503Z,25.77
2019-06-20T01:23:34.518Z,25.73
2019-06-20T01:24:34.475Z,25.73
2019-06-20T01:25:34.744Z,25.68
2019-06-20T01:26:34.458Z,25.65
2019-06-20T01:27:34.446Z,25.72
2019-06-20T01:28:34.428Z,25.73
2019-06-20T01:29:34.427Z,25.70
2019-06-20T01:30:34.408Z,25.73
2019-06-20T01:31:34.426Z,25.66
2019-06-20T01:32:34.385Z,25.65
2019-06-20T01:33:34.378Z,25.68
2019-06-20T01:34:34.366Z,25.68
2019-06-20T01:35:34.385Z,25.66
2019-06-20T01:36:34.348Z,25.72
2019-06-20T01:37:34.330Z,25.68
2019-06-20T01:38:34.319Z,25.65
2019-06-20T01:39:34.309Z,25.68
2019-06-20T01:40:34.311Z,25.66
2019-06-20T01:41:34.320Z,25.68
2019-06-20T01:42:34.279Z,25.66
2019-06-20T01:43:49.383Z,25.68
2019-06-20T01:44:35.253Z,25.65
2019-06-20T01:45:34.246Z,25.69
2019-06-20T01:46:34.245Z,25.66
2019-06-20T01:47:34.229Z,25.65
2019-06-20T01:48:34.213Z,25.60
2019-06-20T01:49:34.197Z,25.59
2019-06-20T01:50:34.191Z,25.55
2019-06-20T01:51:34.399Z,25.55
2019-06-20T01:52:34.166Z,25.62
2019-06-20T01:53:34.182Z,25.63
2019-06-20T01:54:34.141Z,25.66
2019-06-20T01:55:34.136Z,25.65
2019-06-20T01:56:34.129Z,25.58
2019-06-20T01:57:34.148Z,25.66
2019-06-20T01:58:34.131Z,25.66
2019-06-20T01:59:34.107Z,25.59
2019-06-20T02:00:34.079Z,25.59
2019-06-20T02:01:34.070Z,25.66
2019-06-20T02:02:34.051Z,25.59
2019-06-20T02:03:34.057Z,25.58
2019-06-20T02:04:34.032Z,25.54
2019-06-20T02:05:34.046Z,25.55
2019-06-20T02:06:34.018Z,25.54
2019-06-20T02:07:33.997Z,25.54
2019-06-20T02:08:34.002Z,25.51
2019-06-20T02:09:33.975Z,25.51
2019-06-20T02:10:33.979Z,25.51
2019-06-20T02:11:33.984Z,25.65
2019-06-20T02:12:33.982Z,25.54
2019-06-20T02:13:33.929Z,25.58
2019-06-20T02:14:33.921Z,25.55
2019-06-20T02:15:33.908Z,25.59
2019-06-20T02:16:33.910Z,25.54
2019-06-20T02:17:33.900Z,25.53
2019-06-20T02:18:33.884Z,25.51
2019-06-20T02:19:33.873Z,25.53
2019-06-20T02:20:33.851Z,25.59
2019-06-20T02:21:33.849Z,25.58
2019-06-20T02:22:33.831Z,25.53
2019-06-20T02:23:33.855Z,25.54
2019-06-20T02:24:33.824Z,25.58
2019-06-20T02:25:33.798Z,25.54
2019-06-20T02:26:33.789Z,25.51
2019-06-20T02:27:33.777Z,25.58
2019-06-20T02:28:33.764Z,25.48
2019-06-20T02:29:33.763Z,25.55
2019-06-20T02:30:33.754Z,25.50
2019-06-20T02:31:33.737Z,25.48
2019-06-20T02:32:33.722Z,25.55
2019-06-20T02:33:33.713Z,25.58
2019-06-20T02:34:33.697Z,25.50
2019-06-20T02:35:33.685Z,25.48
2019-06-20T02:36:33.698Z,25.53
2019-06-20T02:37:33.672Z,25.51
2019-06-20T02:38:33.652Z,25.51
2019-06-20T02:39:33.640Z,25.51
2019-06-20T02:40:33.629Z,25.50
2019-06-20T02:41:33.620Z,25.41
2019-06-20T02:42:33.646Z,25.53
2019-06-20T02:43:33.594Z,25.48
2019-06-20T02:44:33.593Z,25.50
2019-06-20T02:45:33.573Z,25.47
2019-06-20T02:46:33.564Z,25.40
2019-06-20T02:47:33.568Z,25.48
2019-06-20T02:48:33.558Z,25.40
2019-06-20T02:49:33.579Z,25.43
2019-06-20T02:50:33.521Z,25.44
2019-06-20T02:51:33.511Z,25.44
2019-06-20T02:52:33.504Z,25.43
2019-06-20T02:53:33.485Z,25.46
2019-06-20T02:54:33.484Z,25.40
2019-06-20T02:55:33.471Z,25.43
2019-06-20T02:56:33.449Z,25.46
2019-06-20T02:57:33.446Z,25.38
2019-06-20T02:58:33.433Z,25.40
2019-06-20T02:59:33.416Z,25.43
2019-06-20T03:00:33.499Z,25.40
2019-06-20T03:01:33.398Z,25.41
2019-06-20T03:02:33.391Z,25.43
2019-06-20T03:03:33.373Z,25.35
2019-06-20T03:04:33.364Z,25.38
2019-06-20T03:05:33.618Z,25.40
2019-06-20T03:06:33.364Z,25.43
2019-06-20T03:07:33.335Z,25.46
2019-06-20T03:08:33.315Z,25.48
2019-06-20T03:09:33.377Z,25.40
2019-06-20T03:10:33.296Z,25.41
2019-06-20T03:11:33.284Z,25.43
2019-06-20T03:12:33.312Z,25.40
2019-06-20T03:13:33.266Z,25.46
2019-06-20T03:14:45.002Z,25.36
2019-06-20T03:15:34.254Z,25.40
2019-06-20T03:16:33.244Z,25.36
2019-06-20T03:17:33.223Z,25.46
2019-06-20T03:18:33.227Z,25.40
2019-06-20T03:19:33.194Z,25.44
2019-06-20T03:20:33.189Z,25.43
2019-06-20T03:21:33.176Z,25.43
2019-06-20T03:22:33.175Z,25.38
2019-06-20T03:23:33.150Z,25.36
2019-06-20T03:24:33.174Z,25.46
2019-06-20T03:25:33.129Z,25.26
2019-06-20T03:26:33.117Z,25.33
2019-06-20T03:27:33.126Z,25.40
2019-06-20T03:28:33.105Z,25.41
2019-06-20T03:29:33.084Z,25.41
2019-06-20T03:30:33.104Z,25.33
2019-06-20T03:31:33.072Z,25.35
2019-06-20T03:32:33.067Z,25.35
2019-06-20T03:33:33.138Z,25.40
2019-06-20T03:34:33.037Z,25.38
2019-06-20T03:35:33.020Z,25.38
2019-06-20T03:36:33.023Z,25.33
2019-06-20T03:37:32.995Z,25.32
2019-06-20T03:38:32.991Z,25.38
2019-06-20T03:39:32.974Z,25.31
2019-06-20T03:40:33.008Z,25.33
2019-06-20T03:41:32.950Z,25.40
2019-06-20T03:42:32.969Z,25.38
2019-06-20T03:43:32.933Z,25.35
2019-06-20T03:44:32.917Z,25.33
2019-06-20T03:45:32.906Z,25.31
2019-06-20T03:46:32.901Z,25.29
2019-06-20T03:47:32.888Z,25.32
2019-06-20T03:48:32.900Z,25.23
2019-06-20T03:49:32.866Z,25.36
2019-06-20T03:50:32.852Z,25.35
2019-06-20T03:51:32.840Z,25.32
2019-06-20T03:52:32.828Z,25.29
2019-06-20T03:53:32.831Z,25.35
2019-06-20T03:54:32.840Z,25.31
2019-06-20T03:55:33.075Z,25.33
2019-06-20T03:56:32.786Z,25.31
2019-06-20T03:57:32.770Z,25.28
2019-06-20T03:58:32.766Z,25.29
2019-06-20T03:59:32.752Z,25.35
2019-06-20T04:00:32.754Z,25.32
2019-06-20T04:01:32.727Z,25.31
2019-06-20T04:02:32.716Z,25.28
2019-06-20T04:03:32.713Z,25.32
2019-06-20T04:04:32.739Z,25.28
2019-06-20T04:05:32.681Z,25.26
2019-06-20T04:06:32.723Z,25.33
2019-06-20T04:07:32.662Z,25.29
2019-06-20T04:08:32.654Z,25.26
2019-06-20T04:09:32.640Z,25.23
2019-06-20T04:10:32.661Z,25.32
2019-06-20T04:11:32.618Z,25.26
2019-06-20T04:12:32.623Z,25.28
2019-06-20T04:13:32.602Z,25.26
2019-06-20T04:14:32.583Z,25.28
2019-06-20T04:15:32.569Z,25.23
2019-06-20T04:16:32.557Z,25.29
2019-06-20T04:17:32.547Z,25.28
2019-06-20T04:18:32.568Z,25.29
2019-06-20T04:19:32.529Z,25.29
2019-06-20T04:20:32.515Z,25.28
2019-06-20T04:21:32.513Z,25.29
2019-06-20T04:22:32.501Z,25.28
2019-06-20T04:23:32.491Z,25.28
2019-06-20T04:24:32.476Z,25.28
2019-06-20T04:25:32.457Z,25.28
2019-06-20T04:26:32.447Z,25.23
2019-06-20T04:27:32.442Z,25.23
2019-06-20T04:28:32.443Z,25.23
2019-06-20T04:29:35.757Z,25.23
2019-06-20T04:30:32.428Z,25.25
2019-06-20T04:31:32.410Z,25.25
2019-06-20T04:32:32.382Z,25.25
2019-06-20T04:33:32.369Z,25.23
2019-06-20T04:34:32.368Z,25.26
2019-06-20T04:35:32.347Z,25.28
2019-06-20T04:36:32.377Z,25.32
2019-06-20T04:37:32.327Z,25.23
2019-06-20T04:38:32.319Z,25.29
2019-06-20T04:39:32.315Z,25.26
2019-06-20T04:40:32.295Z,25.21
2019-06-20T04:41:32.280Z,25.25
2019-06-20T04:42:32.299Z,25.21
2019-06-20T04:43:32.260Z,25.21
2019-06-20T04:44:32.255Z,25.25
2019-06-20T04:45:35.465Z,25.23
2019-06-20T04:46:32.225Z,25.28
2019-06-20T04:47:32.214Z,25.31
2019-06-20T04:48:32.215Z,25.22
2019-06-20T04:49:32.197Z,25.31
2019-06-20T04:50:32.241Z,25.23
2019-06-20T04:51:32.170Z,25.22
2019-06-20T04:52:32.159Z,25.26
2019-06-20T04:53:32.147Z,25.17
2019-06-20T04:54:32.171Z,25.26
2019-06-20T04:55:32.136Z,25.23
2019-06-20T04:56:32.114Z,25.23
2019-06-20T04:57:32.101Z,25.18
2019-06-20T04:58:32.105Z,25.25
2019-06-20T04:59:32.092Z,25.18
2019-06-20T05:00:32.094Z,25.23
2019-06-20T05:01:32.059Z,25.16
2019-06-20T05:02:32.046Z,25.17
2019-06-20T05:03:32.043Z,25.25
2019-06-20T05:04:32.026Z,25.18
2019-06-20T05:05:32.013Z,25.26
2019-06-20T05:06:32.011Z,25.29
2019-06-20T05:07:31.990Z,25.29
2019-06-20T05:08:31.988Z,25.18
2019-06-20T05:09:32.011Z,25.22
2019-06-20T05:10:31.956Z,25.28
2019-06-20T05:11:31.944Z,25.26
2019-06-20T05:12:31.942Z,25.25
2019-06-20T05:13:31.924Z,25.25
2019-06-20T05:14:31.934Z,25.25
2019-06-20T05:15:31.904Z,25.28
2019-06-20T05:16:31.940Z,25.18
2019-06-20T05:17:31.881Z,25.26
2019-06-20T05:18:31.889Z,25.28
2019-06-20T05:19:31.862Z,25.23
2019-06-20T05:20:31.852Z,25.22
2019-06-20T05:21:31.834Z,25.21
2019-06-20T05:22:31.822Z,25.25
2019-06-20T05:23:31.814Z,25.21
2019-06-20T05:24:31.839Z,25.29
2019-06-20T05:25:31.788Z,25.26
2019-06-20T05:26:31.777Z,25.17
2019-06-20T05:27:31.819Z,25.31
2019-06-20T05:28:31.757Z,25.26
2019-06-20T05:29:31.755Z,25.22
2019-06-20T05:30:31.808Z,25.21
2019-06-20T05:31:31.721Z,25.22
2019-06-20T05:32:31.711Z,25.26
2019-06-20T05:33:31.711Z,25.22
2019-06-20T05:34:31.697Z,25.17
2019-06-20T05:35:31.678Z,25.21
2019-06-20T05:36:31.705Z,25.23
2019-06-20T05:37:31.665Z,25.26
2019-06-20T05:38:31.654Z,25.29
2019-06-20T05:39:31.651Z,25.17
2019-06-20T05:40:31.673Z,25.18
2019-06-20T05:41:31.611Z,25.22
2019-06-20T05:42:31.633Z,25.29
2019-06-20T05:43:31.587Z,25.17
2019-06-20T05:44:31.575Z,25.18
2019-06-20T05:45:31.574Z,25.22
2019-06-20T05:46:31.557Z,25.18
2019-06-20T05:47:31.679Z,25.29
2019-06-20T05:48:31.615Z,25.21
2019-06-20T05:49:31.525Z,25.22
2019-06-20T05:50:31.513Z,25.25
2019-06-20T05:51:31.496Z,25.22
2019-06-20T05:52:31.488Z,25.22
2019-06-20T05:53:31.474Z,25.28
2019-06-20T05:54:31.522Z,25.29
2019-06-20T05:55:31.458Z,25.22
2019-06-20T05:56:31.443Z,25.31
2019-06-20T05:57:31.438Z,25.28
2019-06-20T05:58:31.418Z,25.23
2019-06-20T05:59:31.412Z,25.26
2019-06-20T06:00:31.446Z,25.28
2019-06-20T06:01:31.385Z,25.21
2019-06-20T06:02:31.374Z,25.31
2019-06-20T06:03:31.369Z,25.26
2019-06-20T06:04:31.348Z,25.23
2019-06-20T06:05:31.344Z,25.31
2019-06-20T06:06:31.351Z,25.29
2019-06-20T06:07:31.318Z,25.31
2019-06-20T06:08:31.303Z,25.26
2019-06-20T06:09:31.299Z,25.22
2019-06-20T06:10:31.291Z,25.26
2019-06-20T06:11:31.268Z,25.23
2019-06-20T06:12:31.277Z,25.29
2019-06-20T06:13:31.594Z,25.21
2019-06-20T06:14:31.621Z,25.16
2019-06-20T06:15:31.250Z,25.18
2019-06-20T06:16:31.215Z,25.25
2019-06-20T06:17:31.205Z,25.22
2019-06-20T06:18:31.189Z,25.13
2019-06-20T06:19:31.195Z,25.14
2019-06-20T06:20:31.179Z,25.14
2019-06-20T06:21:31.157Z,25.14
2019-06-20T06:22:31.150Z,25.14
2019-06-20T06:23:31.132Z,25.14
2019-06-20T06:24:31.124Z,25.10
2019-06-20T06:25:31.164Z,25.14
2019-06-20T06:26:31.100Z,25.16
2019-06-20T06:27:31.090Z,25.10
2019-06-20T06:28:31.078Z,25.18
2019-06-20T06:29:31.064Z,25.16
2019-06-20T06:30:31.064Z,25.14
2019-06-20T06:31:31.061Z,25.07
2019-06-20T06:32:40.063Z,25.18
2019-06-20T06:33:32.018Z,25.23
2019-06-20T06:34:31.008Z,25.21
2019-06-20T06:35:31.006Z,25.18
2019-06-20T06:36:30.989Z,25.10
2019-06-20T06:37:31.000Z,25.08
2019-06-20T06:38:30.966Z,25.13
2019-06-20T06:39:30.951Z,25.17
2019-06-20T06:40:30.956Z,25.16
2019-06-20T06:41:30.928Z,25.18
2019-06-20T06:42:30.920Z,25.10
2019-06-20T06:43:30.930Z,25.17
2019-06-20T06:44:31.847Z,25.18
2019-06-20T06:45:30.892Z,25.17
2019-06-20T06:46:43.714Z,25.10
2019-06-20T06:47:31.861Z,25.18
2019-06-20T06:48:30.878Z,25.21
2019-06-20T06:49:30.837Z,25.13
2019-06-20T06:50:30.936Z,25.23
2019-06-20T06:51:30.829Z,25.17
2019-06-20T06:52:30.833Z,25.22
2019-06-20T06:53:30.816Z,25.17
2019-06-20T06:54:30.898Z,25.25
2019-06-20T06:55:30.811Z,25.13
2019-06-20T06:56:31.062Z,25.08
2019-06-20T06:57:30.800Z,25.14
2019-06-20T06:58:30.743Z,25.21
2019-06-20T06:59:30.723Z,25.14
2019-06-20T07:00:30.734Z,25.07
2019-06-20T07:01:30.707Z,25.16
2019-06-20T07:02:30.698Z,25.10
2019-06-20T07:03:30.716Z,25.10
2019-06-20T07:04:30.788Z,25.11
2019-06-20T07:05:30.796Z,25.13
2019-06-20T07:06:30.754Z,25.11
2019-06-20T07:07:30.670Z,25.13
2019-06-20T07:08:30.663Z,25.18
2019-06-20T07:09:30.643Z,25.16
2019-06-20T07:10:30.603Z,25.13
2019-06-20T07:11:30.616Z,25.10
2019-06-20T07:12:30.667Z,25.17
2019-06-20T07:13:30.589Z,25.18
2019-06-20T07:14:30.567Z,25.21
2019-06-20T07:15:30.629Z,25.23
2019-06-20T07:16:30.613Z,25.18
2019-06-20T07:17:30.643Z,25.16
2019-06-20T07:18:30.508Z,25.23
2019-06-20T07:19:30.525Z,25.23
2019-06-20T07:20:30.546Z,25.18
2019-06-20T07:21:30.480Z,25.23
2019-06-20T07:22:30.556Z,25.23
2019-06-20T07:23:30.487Z,25.31
2019-06-20T07:24:30.468Z,25.31
2019-06-20T07:25:30.462Z,25.23
2019-06-20T07:26:30.439Z,25.28
2019-06-20T07:27:30.408Z,25.26
2019-06-20T07:28:30.395Z,25.28
2019-06-20T07:29:30.388Z,25.29
2019-06-20T07:30:30.388Z,25.29
2019-06-20T07:31:30.367Z,25.28
2019-06-20T07:32:30.393Z,25.28
2019-06-20T07:33:30.428Z,25.28
2019-06-20T07:34:30.330Z,25.29
2019-06-20T07:35:30.366Z,25.26
2019-06-20T07:36:30.336Z,25.29
2019-06-20T07:37:30.449Z,25.29
2019-06-20T07:38:30.284Z,25.28
2019-06-20T07:39:30.282Z,25.32
2019-06-20T07:40:30.300Z,25.26
2019-06-20T07:41:30.264Z,25.28
2019-06-20T07:42:30.239Z,25.31
2019-06-20T07:43:30.304Z,25.29
2019-06-20T07:44:30.215Z,25.32
2019-06-20T07:45:30.202Z,25.26
2019-06-20T07:46:30.269Z,25.29
2019-06-20T07:47:30.180Z,25.22
2019-06-20T07:48:30.193Z,25.32
2019-06-20T07:49:30.166Z,25.26
2019-06-20T07:50:30.246Z,25.36
2019-06-20T07:51:30.146Z,25.23
2019-06-20T07:52:30.149Z,25.33
2019-06-20T07:53:30.119Z,25.31
2019-06-20T07:54:30.109Z,25.35
2019-06-20T07:55:30.126Z,25.32
2019-06-20T07:56:30.086Z,25.28
2019-06-20T07:57:30.068Z,25.32
2019-06-20T07:58:30.080Z,25.32
2019-06-20T07:59:30.043Z,25.36
2019-06-20T08:00:30.033Z,25.36
2019-06-20T08:01:30.082Z,25.29
2019-06-20T08:02:30.012Z,25.33
2019-06-20T08:03:30.022Z,25.36
2019-06-20T08:04:29.985Z,25.36
2019-06-20T08:05:29.982Z,25.36
2019-06-20T08:06:29.971Z,25.33
2019-06-20T08:07:30.111Z,25.35
2019-06-20T08:08:29.946Z,25.40
2019-06-20T08:09:44.404Z,25.40
2019-06-20T08:10:30.916Z,25.41
2019-06-20T08:11:29.925Z,25.38
2019-06-20T08:12:29.896Z,25.41
2019-06-20T08:13:29.885Z,25.41
2019-06-20T08:14:29.876Z,25.36
2019-06-20T08:15:29.896Z,25.35
2019-06-20T08:16:29.864Z,25.29
2019-06-20T08:17:35.149Z,25.43
2019-06-20T08:18:30.832Z,25.38
2019-06-20T08:19:29.821Z,25.38
2019-06-20T08:20:29.805Z,25.38
2019-06-20T08:21:29.814Z,25.36
2019-06-20T08:22:29.832Z,25.38
2019-06-20T08:23:29.773Z,25.36
2019-06-20T08:24:29.766Z,25.46
2019-06-20T08:25:29.783Z,25.40
2019-06-20T08:26:29.747Z,25.46
2019-06-20T08:27:29.734Z,25.40
2019-06-20T08:28:29.717Z,25.48
2019-06-20T08:29:29.724Z,25.40
2019-06-20T08:30:29.694Z,25.43
2019-06-20T08:31:29.690Z,25.40
2019-06-20T08:32:29.676Z,25.40
2019-06-20T08:33:29.660Z,25.40
2019-06-20T08:34:29.674Z,25.36
2019-06-20T08:35:29.668Z,25.43
2019-06-20T08:36:29.627Z,25.41
2019-06-20T08:37:29.626Z,25.43
2019-06-20T08:38:29.605Z,25.43
2019-06-20T08:39:29.643Z,25.44
2019-06-20T08:40:29.588Z,25.43
2019-06-20T08:41:29.589Z,25.46
2019-06-20T08:42:29.567Z,25.46
2019-06-20T08:43:29.547Z,25.47
2019-06-20T08:44:29.536Z,25.47
2019-06-20T08:45:29.527Z,25.38
2019-06-20T08:46:29.518Z,25.51
2019-06-20T08:47:29.522Z,25.50
2019-06-20T08:48:29.491Z,25.51
2019-06-20T08:49:29.490Z,25.53
2019-06-20T08:50:29.469Z,25.48
2019-06-20T08:51:29.466Z,25.51
2019-06-20T08:52:29.459Z,25.54
2019-06-20T08:53:29.482Z,25.55
2019-06-20T08:54:29.429Z,25.55
2019-06-20T08:55:29.417Z,25.55
2019-06-20T08:56:29.627Z,25.47
2019-06-20T08:57:29.403Z,25.54
2019-06-20T08:58:29.382Z,25.58
2019-06-20T08:59:29.399Z,25.51
2019-06-20T09:00:29.362Z,25.58
2019-06-20T09:01:29.892Z,25.53
2019-06-20T09:02:29.355Z,25.55
2019-06-20T09:03:29.327Z,25.55
2019-06-20T09:04:29.316Z,25.51
2019-06-20T09:05:30.717Z,25.53
2019-06-20T09:06:29.294Z,25.54
2019-06-20T09:07:29.292Z,25.54
2019-06-20T09:08:29.273Z,25.50
2019-06-20T09:09:29.269Z,25.58
2019-06-20T09:10:29.262Z,25.53
2019-06-20T09:11:29.280Z,25.54
2019-06-20T09:12:29.236Z,25.54
2019-06-20T09:13:29.219Z,25.51
2019-06-20T09:14:29.206Z,25.55
2019-06-20T09:15:29.197Z,25.53
2019-06-20T09:16:29.178Z,25.54
2019-06-20T09:17:29.208Z,25.47
2019-06-20T09:18:29.164Z,25.54
2019-06-20T09:19:29.154Z,25.55
2019-06-20T09:20:29.144Z,25.53
2019-06-20T09:21:29.128Z,25.59
2019-06-20T09:22:29.131Z,25.58
2019-06-20T09:23:29.134Z,25.58
2019-06-20T09:24:29.092Z,25.51
2019-06-20T09:25:29.081Z,25.58
2019-06-20T09:26:29.068Z,25.55
2019-06-20T09:27:29.074Z,25.53
2019-06-20T09:28:29.057Z,25.54
2019-06-20T09:29:41.083Z,25.51
2019-06-20T09:30:30.021Z,25.53
2019-06-20T09:31:29.018Z,25.54
2019-06-20T09:32:29.044Z,25.55
2019-06-20T09:33:28.995Z,25.55
2019-06-20T09:34:28.985Z,25.51
2019-06-20T09:35:28.989Z,25.58
2019-06-20T09:36:28.973Z,25.54
2019-06-20T09:37:28.945Z,25.62
2019-06-20T09:38:28.938Z,25.55
2019-06-20T09:39:28.927Z,25.55
2019-06-20T09:40:28.920Z,25.58
2019-06-20T09:41:28.902Z,25.54
2019-06-20T09:42:28.923Z,25.59
2019-06-20T09:43:28.883Z,25.54
2019-06-20T09:44:28.864Z,25.65
2019-06-20T09:45:28.853Z,25.63
2019-06-20T09:46:29.060Z,25.66
2019-06-20T09:47:28.834Z,25.60
2019-06-20T09:48:28.847Z,25.63
2019-06-20T09:49:28.840Z,25.60
2019-06-20T09:50:28.798Z,25.63
2019-06-20T09:51:28.786Z,25.58
2019-06-20T09:52:28.775Z,25.65
2019-06-20T09:53:28.774Z,25.59
2019-06-20T09:54:28.784Z,25.63
2019-06-20T09:55:28.746Z,25.68
2019-06-20T09:56:28.733Z,25.62
2019-06-20T09:57:28.738Z,25.70
2019-06-20T09:58:28.730Z,25.66
2019-06-20T09:59:28.708Z,25.66
2019-06-20T10:00:28.868Z,25.72
2019-06-20T10:01:28.677Z,25.63
2019-06-20T10:02:28.689Z,25.72
2019-06-20T10:03:28.662Z,25.62
2019-06-20T10:04:28.644Z,25.70
2019-06-20T10:05:28.653Z,25.73
2019-06-20T10:06:28.662Z,25.73
2019-06-20T10:07:28.660Z,25.73
2019-06-20T10:08:28.622Z,25.75
2019-06-20T10:09:28.616Z,25.66
2019-06-20T10:10:28.611Z,25.77
2019-06-20T10:11:28.561Z,25.70
2019-06-20T10:12:28.567Z,25.78
2019-06-20T10:13:32.378Z,25.81
2019-06-20T10:14:28.535Z,25.81
2019-06-20T10:15:28.523Z,25.75
2019-06-20T10:16:28.506Z,25.78
2019-06-20T10:17:28.508Z,25.78
2019-06-20T10:18:28.519Z,25.77
2019-06-20T10:19:28.479Z,25.83
2019-06-20T10:20:28.465Z,25.78
2019-06-20T10:21:28.460Z,25.83
2019-06-20T10:22:28.450Z,25.85
2019-06-20T10:23:28.438Z,25.84
2019-06-20T10:24:28.451Z,25.85
2019-06-20T10:25:28.409Z,25.85
2019-06-20T10:26:28.409Z,25.85
2019-06-20T10:27:28.386Z,25.81
2019-06-20T10:28:28.374Z,25.83
2019-06-20T10:29:28.378Z,25.88
2019-06-20T10:30:28.370Z,25.83
2019-06-20T10:31:28.340Z,25.87
2019-06-20T10:32:28.345Z,25.90
2019-06-20T10:33:28.318Z,25.87
2019-06-20T10:34:31.044Z,25.85
2019-06-20T10:35:28.299Z,25.91
2019-06-20T10:36:28.368Z,25.87
2019-06-20T10:37:28.274Z,25.88
2019-06-20T10:38:28.286Z,25.91
2019-06-20T10:39:28.260Z,25.88
2019-06-20T10:40:28.242Z,25.91
2019-06-20T10:41:28.230Z,25.90
2019-06-20T10:42:28.356Z,25.96
2019-06-20T10:43:28.253Z,25.90
2019-06-20T10:44:28.199Z,25.87
2019-06-20T10:45:28.189Z,25.95
2019-06-20T10:46:28.174Z,25.93
2019-06-20T10:47:33.685Z,25.87
2019-06-20T10:48:29.180Z,25.96
2019-06-20T10:49:28.226Z,25.95
2019-06-20T10:50:28.252Z,26.00
2019-06-20T10:51:28.122Z,25.95
2019-06-20T10:52:28.106Z,25.96
2019-06-20T10:53:28.113Z,25.96
2019-06-20T10:54:28.102Z,25.90
2019-06-20T10:55:28.095Z,26.07
2019-06-20T10:56:28.067Z,25.96
2019-06-20T10:57:28.080Z,26.06
2019-06-20T10:58:28.079Z,25.96
2019-06-20T10:59:28.047Z,25.96
2019-06-20T11:00:31.291Z,25.96
2019-06-20T11:01:28.051Z,26.02
2019-06-20T11:02:28.022Z,26.03
2019-06-20T11:03:28.036Z,25.99
2019-06-20T11:04:27.993Z,26.02
2019-06-20T11:05:28.020Z,25.96
2019-06-20T11:06:27.955Z,26.09
2019-06-20T11:07:28.011Z,25.99
2019-06-20T11:08:27.960Z,26.00
2019-06-20T11:09:27.993Z,26.05
2019-06-20T11:10:28.528Z,26.00
2019-06-20T11:11:27.930Z,26.03
2019-06-20T11:12:42.460Z,26.00
2019-06-20T11:13:28.885Z,26.03
2019-06-20T11:14:27.860Z,25.99
2019-06-20T11:15:27.934Z,26.03
2019-06-20T11:16:27.845Z,26.07
2019-06-20T11:17:27.833Z,26.05
2019-06-20T11:18:27.815Z,25.99
2019-06-20T11:19:27.931Z,26.02
2019-06-20T11:20:27.803Z,26.00
2019-06-20T11:21:27.796Z,26.02
2019-06-20T11:22:27.859Z,25.99
2019-06-20T11:23:27.792Z,25.99
2019-06-20T11:24:27.811Z,26.02
2019-06-20T11:25:27.750Z,26.03
2019-06-20T11:26:27.992Z,26.03
2019-06-20T11:27:27.842Z,26.00
2019-06-20T11:28:27.742Z,26.03
2019-06-20T11:29:28.285Z,26.07
2019-06-20T11:30:27.744Z,25.99
2019-06-20T11:31:27.685Z,26.05
2019-06-20T11:32:27.899Z,26.03
2019-06-20T11:33:27.649Z,25.96
2019-06-20T11:34:27.651Z,26.06
2019-06-20T11:35:27.644Z,25.95
2019-06-20T11:36:27.673Z,25.98
2019-06-20T11:37:27.611Z,26.03
2019-06-20T11:38:27.592Z,26.02
2019-06-20T11:39:27.586Z,26.02
2019-06-20T11:40:27.639Z,25.93
2019-06-20T11:41:27.602Z,26.00
2019-06-20T11:42:27.553Z,25.91
2019-06-20T11:43:27.555Z,26.03
2019-06-20T11:44:27.526Z,25.96
2019-06-20T11:45:27.621Z,25.99
2019-06-20T11:46:27.567Z,25.98
2019-06-20T11:47:27.502Z,25.90
2019-06-20T11:48:27.481Z,25.99
2019-06-20T11:49:27.478Z,25.93
2019-06-20T11:50:27.567Z,25.88
2019-06-20T11:51:27.446Z,25.90
2019-06-20T11:52:27.512Z,25.98
2019-06-20T11:53:27.432Z,25.99
2019-06-20T11:54:27.431Z,25.95
2019-06-20T11:55:27.420Z,25.99
2019-06-20T11:56:27.466Z,25.88
2019-06-20T11:57:27.380Z,25.87
2019-06-20T11:58:27.410Z,26.00
2019-06-20T11:59:27.429Z,25.93
2019-06-20T12:00:27.366Z,25.95
2019-06-20T12:01:32.768Z,25.93
2019-06-20T12:02:28.378Z,25.96
2019-06-20T12:03:27.385Z,25.96
2019-06-20T12:04:27.316Z,25.88
2019-06-20T12:05:27.346Z,25.95
2019-06-20T12:06:27.326Z,25.91
2019-06-20T12:07:27.285Z,25.91
2019-06-20T12:08:27.263Z,25.96
2019-06-20T12:09:27.266Z,25.93
2019-06-20T12:10:27.324Z,25.93
2019-06-20T12:11:27.249Z,25.93
2019-06-20T12:12:27.226Z,25.96
2019-06-20T12:13:27.373Z,25.87
2019-06-20T12:14:27.197Z,26.02
2019-06-20T12:15:27.184Z,25.91
2019-06-20T12:16:28.146Z,26.00
2019-06-20T12:17:27.217Z,26.03
2019-06-20T12:18:27.218Z,25.96
2019-06-20T12:19:27.195Z,25.98
2019-06-20T12:20:27.188Z,25.88
2019-06-20T12:21:27.138Z,26.07
2019-06-20T12:22:27.112Z,25.95
2019-06-20T12:23:27.226Z,26.02
2019-06-20T12:24:27.123Z,25.96
2019-06-20T12:25:27.076Z,25.98
2019-06-20T12:26:27.076Z,26.07
2019-06-20T12:27:27.048Z,26.02
2019-06-20T12:28:27.034Z,25.99
2019-06-20T12:29:27.028Z,26.02
2019-06-20T12:30:27.013Z,26.00
2019-06-20T12:31:27.026Z,25.98
2019-06-20T12:32:26.994Z,26.05
2019-06-20T12:33:27.016Z,26.03
2019-06-20T12:34:26.969Z,26.05
2019-06-20T12:35:27.002Z,26.03
2019-06-20T12:36:27.072Z,26.03
2019-06-20T12:37:26.939Z,25.98
2019-06-20T12:38:26.927Z,26.02
2019-06-20T12:39:26.939Z,26.06
2019-06-20T12:40:26.901Z,25.96
2019-06-20T12:41:26.917Z,26.03
2019-06-20T12:42:26.936Z,26.07
2019-06-20T12:43:26.875Z,26.06
2019-06-20T12:44:26.857Z,25.99
2019-06-20T12:45:26.851Z,26.06
2019-06-20T12:46:26.853Z,26.03
2019-06-20T12:47:26.861Z,26.06
2019-06-20T12:48:26.832Z,25.96
2019-06-20T12:49:26.806Z,26.00
2019-06-20T12:50:26.790Z,25.96
2019-06-20T12:51:26.950Z,26.00
2019-06-20T12:52:26.835Z,26.02